Terminal Aerodrome Forecast
Issued by NWS Missoula, MT

Home | Current Version | Previous Version | Text Only | Print | Product List | Glossary On
Versions: 1 2 3 4 5 6 7 8 9 10 11 12 13 14 15 16 17
264
FTUS45 KMSO 301720
TAFMSO
TAF
KMSO 301720Z 3018/0118 30004KT P6SM VCSH SCT021 BKN060 OVC080
     FM302300 03010G18KT P6SM VCSH OVC070
     FM010300 05007KT P6SM SCT100
     FM011000 VRB04KT P6SM SKC=

USA.gov is the U.S. government's official web portal to all federal, state and local government web resources and services.